sensor_id;sensor_type;location;lat;lon;timestamp;P1;durP1;ratioP1;P2;durP2;ratioP2
73940;SDS011;62294;48.554;10.202;2023-10-08T00:02:26;6.88;;;3.25;;
73940;SDS011;62294;48.554;10.202;2023-10-08T00:04:53;8.38;;;3.25;;
73940;SDS011;62294;48.554;10.202;2023-10-08T00:07:24;9.18;;;3.97;;
73940;SDS011;62294;48.554;10.202;2023-10-08T00:09:51;7.55;;;3.40;;
73940;SDS011;62294;48.554;10.202;2023-10-08T00:12:19;7.55;;;3.28;;
73940;SDS011;62294;48.554;10.202;2023-10-08T00:14:47;5.40;;;2.85;;
73940;SDS011;62294;48.554;10.202;2023-10-08T00:17:16;7.93;;;3.40;;
73940;SDS011;62294;48.554;10.202;2023-10-08T00:19:46;5.97;;;2.63;;
73940;SDS011;62294;48.554;10.202;2023-10-08T00:22:18;7.72;;;3.10;;
73940;SDS011;62294;48.554;10.202;2023-10-08T00:24:45;6.57;;;2.70;;
73940;SDS011;62294;48.554;10.202;2023-10-08T00:27:13;6.57;;;3.17;;
73940;SDS011;62294;48.554;10.202;2023-10-08T00:29:43;10.75;;;3.25;;
73940;SDS011;62294;48.554;10.202;2023-10-08T00:32:11;10.88;;;3.97;;
73940;SDS011;62294;48.554;10.202;2023-10-08T00:34:39;8.18;;;3.45;;
73940;SDS011;62294;48.554;10.202;2023-10-08T00:37:12;8.27;;;3.75;;
73940;SDS011;62294;48.554;10.202;2023-10-08T00:39:42;9.77;;;3.80;;
73940;SDS011;62294;48.554;10.202;2023-10-08T00:42:08;8.82;;;3.55;;
73940;SDS011;62294;48.554;10.202;2023-10-08T00:44:35;7.95;;;3.47;;
73940;SDS011;62294;48.554;10.202;2023-10-08T00:47:17;7.18;;;3.50;;
73940;SDS011;62294;48.554;10.202;2023-10-08T00:49:46;8.07;;;3.15;;
73940;SDS011;62294;48.554;10.202;2023-10-08T00:52:28;6.68;;;3.17;;
73940;SDS011;62294;48.554;10.202;2023-10-08T00:54:56;8.27;;;3.80;;
73940;SDS011;62294;48.554;10.202;2023-10-08T00:57:35;10.43;;;3.67;;
73940;SDS011;62294;48.554;10.202;2023-10-08T01:00:06;8.02;;;3.05;;
73940;SDS011;62294;48.554;10.202;2023-10-08T01:02:41;12.82;;;3.53;;
73940;SDS011;62294;48.554;10.202;2023-10-08T01:05:14;7.28;;;3.80;;
73940;SDS011;62294;48.554;10.202;2023-10-08T01:10:15;4.90;;;2.75;;
73940;SDS011;62294;48.554;10.202;2023-10-08T01:12:46;6.80;;;3.08;;
73940;SDS011;62294;48.554;10.202;2023-10-08T01:15:22;7.78;;;3.47;;
73940;SDS011;62294;48.554;10.202;2023-10-08T01:17:55;8.70;;;3.53;;
73940;SDS011;62294;48.554;10.202;2023-10-08T01:20:48;10.10;;;3.42;;
73940;SDS011;62294;48.554;10.202;2023-10-08T01:23:18;9.15;;;3.40;;
73940;SDS011;62294;48.554;10.202;2023-10-08T01:25:53;7.57;;;3.38;;
73940;SDS011;62294;48.554;10.202;2023-10-08T01:28:49;7.60;;;3.45;;
73940;SDS011;62294;48.554;10.202;2023-10-08T01:31:16;7.43;;;2.97;;
73940;SDS011;62294;48.554;10.202;2023-10-08T01:33:42;10.38;;;3.53;;
73940;SDS011;62294;48.554;10.202;2023-10-08T01:36:20;6.47;;;3.13;;
73940;SDS011;62294;48.554;10.202;2023-10-08T01:38:48;7.97;;;3.17;;
73940;SDS011;62294;48.554;10.202;2023-10-08T01:41:15;7.25;;;2.85;;
73940;SDS011;62294;48.554;10.202;2023-10-08T01:43:46;9.32;;;2.88;;
73940;SDS011;62294;48.554;10.202;2023-10-08T01:46:12;7.93;;;2.72;;
73940;SDS011;62294;48.554;10.202;2023-10-08T01:48:42;8.77;;;3.33;;
73940;SDS011;62294;48.554;10.202;2023-10-08T01:51:10;6.22;;;3.03;;
73940;SDS011;62294;48.554;10.202;2023-10-08T01:53:38;10.88;;;3.15;;
73940;SDS011;62294;48.554;10.202;2023-10-08T01:56:05;7.25;;;2.72;;
73940;SDS011;62294;48.554;10.202;2023-10-08T01:58:31;8.65;;;3.67;;
73940;SDS011;62294;48.554;10.202;2023-10-08T02:01:00;7.45;;;3.08;;
73940;SDS011;62294;48.554;10.202;2023-10-08T02:03:27;7.97;;;3.40;;
73940;SDS011;62294;48.554;10.202;2023-10-08T02:05:54;9.63;;;3.03;;
73940;SDS011;62294;48.554;10.202;2023-10-08T02:08:25;5.78;;;2.97;;
73940;SDS011;62294;48.554;10.202;2023-10-08T02:10:53;6.63;;;3.03;;
73940;SDS011;62294;48.554;10.202;2023-10-08T02:13:19;8.68;;;3.38;;
73940;SDS011;62294;48.554;10.202;2023-10-08T02:15:48;10.30;;;3.60;;
73940;SDS011;62294;48.554;10.202;2023-10-08T02:18:20;9.48;;;3.72;;
73940;SDS011;62294;48.554;10.202;2023-10-08T02:20:49;6.65;;;3.03;;
73940;SDS011;62294;48.554;10.202;2023-10-08T02:23:17;11.45;;;3.42;;
73940;SDS011;62294;48.554;10.202;2023-10-08T02:25:44;8.73;;;3.00;;
73940;SDS011;62294;48.554;10.202;2023-10-08T02:28:11;5.95;;;3.25;;
73940;SDS011;62294;48.554;10.202;2023-10-08T02:30:42;6.70;;;3.33;;
73940;SDS011;62294;48.554;10.202;2023-10-08T02:33:09;7.85;;;3.33;;
73940;SDS011;62294;48.554;10.202;2023-10-08T02:35:41;7.40;;;3.03;;
73940;SDS011;62294;48.554;10.202;2023-10-08T02:38:09;7.80;;;3.50;;
73940;SDS011;62294;48.554;10.202;2023-10-08T02:40:39;6.32;;;3.22;;
73940;SDS011;62294;48.554;10.202;2023-10-08T02:43:14;9.00;;;3.05;;
73940;SDS011;62294;48.554;10.202;2023-10-08T02:45:42;6.90;;;3.10;;
73940;SDS011;62294;48.554;10.202;2023-10-08T02:48:13;6.63;;;3.00;;
73940;SDS011;62294;48.554;10.202;2023-10-08T02:50:40;8.93;;;3.60;;
73940;SDS011;62294;48.554;10.202;2023-10-08T02:53:08;9.50;;;3.25;;
73940;SDS011;62294;48.554;10.202;2023-10-08T02:55:40;6.80;;;2.80;;
73940;SDS011;62294;48.554;10.202;2023-10-08T02:58:13;8.35;;;3.17;;
73940;SDS011;62294;48.554;10.202;2023-10-08T03:00:42;8.18;;;3.42;;
73940;SDS011;62294;48.554;10.202;2023-10-08T03:03:09;7.28;;;3.00;;
73940;SDS011;62294;48.554;10.202;2023-10-08T03:05:45;8.27;;;3.05;;
73940;SDS011;62294;48.554;10.202;2023-10-08T03:08:14;7.03;;;3.13;;
73940;SDS011;62294;48.554;10.202;2023-10-08T03:10:47;9.65;;;3.90;;
73940;SDS011;62294;48.554;10.202;2023-10-08T03:13:29;9.70;;;3.47;;
73940;SDS011;62294;48.554;10.202;2023-10-08T03:15:55;8.23;;;2.85;;
73940;SDS011;62294;48.554;10.202;2023-10-08T03:18:25;10.07;;;3.50;;
73940;SDS011;62294;48.554;10.202;2023-10-08T03:20:51;7.30;;;3.00;;
73940;SDS011;62294;48.554;10.202;2023-10-08T03:23:18;7.57;;;3.40;;
73940;SDS011;62294;48.554;10.202;2023-10-08T03:26:01;7.63;;;3.30;;
73940;SDS011;62294;48.554;10.202;2023-10-08T03:28:37;7.82;;;3.13;;
73940;SDS011;62294;48.554;10.202;2023-10-08T03:31:08;8.05;;;3.80;;
73940;SDS011;62294;48.554;10.202;2023-10-08T03:36:10;7.53;;;2.90;;
73940;SDS011;62294;48.554;10.202;2023-10-08T03:38:48;8.63;;;2.85;;
73940;SDS011;62294;48.554;10.202;2023-10-08T03:41:23;7.55;;;3.17;;
73940;SDS011;62294;48.554;10.202;2023-10-08T03:43:56;7.68;;;3.15;;
73940;SDS011;62294;48.554;10.202;2023-10-08T03:46:32;9.18;;;3.90;;
73940;SDS011;62294;48.554;10.202;2023-10-08T03:51:41;7.93;;;3.30;;
73940;SDS011;62294;48.554;10.202;2023-10-08T03:54:08;7.28;;;2.85;;
73940;SDS011;62294;48.554;10.202;2023-10-08T03:56:45;7.15;;;3.15;;
73940;SDS011;62294;48.554;10.202;2023-10-08T03:59:13;8.43;;;3.35;;
73940;SDS011;62294;48.554;10.202;2023-10-08T04:01:43;7.50;;;3.47;;
73940;SDS011;62294;48.554;10.202;2023-10-08T04:04:10;7.95;;;3.13;;
73940;SDS011;62294;48.554;10.202;2023-10-08T04:06:41;6.45;;;3.25;;
73940;SDS011;62294;48.554;10.202;2023-10-08T04:09:16;8.63;;;3.50;;
73940;SDS011;62294;48.554;10.202;2023-10-08T04:11:50;6.45;;;3.33;;
73940;SDS011;62294;48.554;10.202;2023-10-08T04:14:21;8.18;;;3.28;;
73940;SDS011;62294;48.554;10.202;2023-10-08T04:16:49;8.00;;;3.47;;
73940;SDS011;62294;48.554;10.202;2023-10-08T04:19:20;5.75;;;3.00;;
73940;SDS011;62294;48.554;10.202;2023-10-08T04:21:53;8.82;;;3.35;;
73940;SDS011;62294;48.554;10.202;2023-10-08T04:24:24;9.40;;;3.22;;
73940;SDS011;62294;48.554;10.202;2023-10-08T04:26:55;8.20;;;3.30;;
73940;SDS011;62294;48.554;10.202;2023-10-08T04:29:24;8.05;;;3.63;;
73940;SDS011;62294;48.554;10.202;2023-10-08T04:31:52;8.07;;;3.40;;
73940;SDS011;62294;48.554;10.202;2023-10-08T04:34:28;5.18;;;2.50;;
73940;SDS011;62294;48.554;10.202;2023-10-08T04:36:55;7.82;;;3.03;;
73940;SDS011;62294;48.554;10.202;2023-10-08T04:39:27;6.85;;;3.17;;
73940;SDS011;62294;48.554;10.202;2023-10-08T04:42:00;5.47;;;2.80;;
73940;SDS011;62294;48.554;10.202;2023-10-08T04:44:37;6.90;;;2.85;;
73940;SDS011;62294;48.554;10.202;2023-10-08T04:47:07;7.88;;;3.20;;
73940;SDS011;62294;48.554;10.202;2023-10-08T04:49:54;10.70;;;3.70;;
73940;SDS011;62294;48.554;10.202;2023-10-08T04:52:22;10.73;;;4.35;;
73940;SDS011;62294;48.554;10.202;2023-10-08T04:54:51;10.35;;;4.30;;
73940;SDS011;62294;48.554;10.202;2023-10-08T04:57:18;9.95;;;4.38;;
73940;SDS011;62294;48.554;10.202;2023-10-08T04:59:49;8.35;;;3.95;;
73940;SDS011;62294;48.554;10.202;2023-10-08T05:02:17;10.35;;;4.05;;
73940;SDS011;62294;48.554;10.202;2023-10-08T05:04:53;11.40;;;3.67;;
73940;SDS011;62294;48.554;10.202;2023-10-08T05:07:43;6.82;;;3.28;;
73940;SDS011;62294;48.554;10.202;2023-10-08T05:10:15;7.93;;;3.72;;
73940;SDS011;62294;48.554;10.202;2023-10-08T05:12:51;8.98;;;4.15;;
73940;SDS011;62294;48.554;10.202;2023-10-08T05:15:31;8.55;;;3.78;;
73940;SDS011;62294;48.554;10.202;2023-10-08T05:18:08;6.63;;;3.50;;
73940;SDS011;62294;48.554;10.202;2023-10-08T05:20:40;10.75;;;4.18;;
73940;SDS011;62294;48.554;10.202;2023-10-08T05:23:10;8.38;;;3.65;;
73940;SDS011;62294;48.554;10.202;2023-10-08T05:25:50;7.70;;;3.78;;
73940;SDS011;62294;48.554;10.202;2023-10-08T05:28:32;10.30;;;4.05;;
73940;SDS011;62294;48.554;10.202;2023-10-08T05:31:13;9.65;;;4.35;;
73940;SDS011;62294;48.554;10.202;2023-10-08T05:33:44;9.05;;;4.18;;
73940;SDS011;62294;48.554;10.202;2023-10-08T05:36:41;7.85;;;3.50;;
73940;SDS011;62294;48.554;10.202;2023-10-08T05:39:26;11.25;;;4.05;;
73940;SDS011;62294;48.554;10.202;2023-10-08T05:42:06;8.18;;;3.75;;
73940;SDS011;62294;48.554;10.202;2023-10-08T05:44:43;8.82;;;3.80;;
73940;SDS011;62294;48.554;10.202;2023-10-08T05:47:29;7.10;;;3.35;;
73940;SDS011;62294;48.554;10.202;2023-10-08T05:50:00;7.57;;;3.50;;
73940;SDS011;62294;48.554;10.202;2023-10-08T05:52:46;6.90;;;3.88;;
73940;SDS011;62294;48.554;10.202;2023-10-08T05:55:28;7.45;;;3.38;;
73940;SDS011;62294;48.554;10.202;2023-10-08T05:58:02;7.90;;;3.75;;
73940;SDS011;62294;48.554;10.202;2023-10-08T06:00:47;8.88;;;3.42;;
73940;SDS011;62294;48.554;10.202;2023-10-08T06:03:17;9.40;;;3.50;;
73940;SDS011;62294;48.554;10.202;2023-10-08T06:06:07;11.95;;;3.80;;
73940;SDS011;62294;48.554;10.202;2023-10-08T06:08:40;10.95;;;2.83;;
73940;SDS011;62294;48.554;10.202;2023-10-08T06:11:26;7.40;;;3.20;;
73940;SDS011;62294;48.554;10.202;2023-10-08T06:14:11;7.53;;;3.65;;
73940;SDS011;62294;48.554;10.202;2023-10-08T06:16:43;12.32;;;3.42;;
73940;SDS011;62294;48.554;10.202;2023-10-08T06:19:11;5.00;;;3.20;;
73940;SDS011;62294;48.554;10.202;2023-10-08T06:21:39;9.90;;;3.40;;
73940;SDS011;62294;48.554;10.202;2023-10-08T06:24:07;7.57;;;3.63;;
73940;SDS011;62294;48.554;10.202;2023-10-08T06:26:36;9.57;;;3.25;;
73940;SDS011;62294;48.554;10.202;2023-10-08T06:29:09;8.18;;;4.10;;
73940;SDS011;62294;48.554;10.202;2023-10-08T06:31:45;6.78;;;2.90;;
73940;SDS011;62294;48.554;10.202;2023-10-08T06:34:18;7.03;;;3.05;;
73940;SDS011;62294;48.554;10.202;2023-10-08T06:36:48;9.40;;;3.65;;
73940;SDS011;62294;48.554;10.202;2023-10-08T06:39:25;7.57;;;3.28;;
73940;SDS011;62294;48.554;10.202;2023-10-08T06:41:59;14.93;;;3.60;;
73940;SDS011;62294;48.554;10.202;2023-10-08T06:44:27;9.85;;;3.33;;
73940;SDS011;62294;48.554;10.202;2023-10-08T06:46:54;8.88;;;3.20;;
73940;SDS011;62294;48.554;10.202;2023-10-08T06:49:22;6.30;;;3.33;;
73940;SDS011;62294;48.554;10.202;2023-10-08T06:51:50;12.93;;;4.05;;
73940;SDS011;62294;48.554;10.202;2023-10-08T06:54:17;8.55;;;3.85;;
73940;SDS011;62294;48.554;10.202;2023-10-08T06:56:45;10.23;;;3.75;;
73940;SDS011;62294;48.554;10.202;2023-10-08T06:59:18;9.32;;;4.00;;
73940;SDS011;62294;48.554;10.202;2023-10-08T07:01:49;10.10;;;3.65;;
73940;SDS011;62294;48.554;10.202;2023-10-08T07:04:18;12.50;;;4.10;;
73940;SDS011;62294;48.554;10.202;2023-10-08T07:06:46;7.05;;;3.60;;
73940;SDS011;62294;48.554;10.202;2023-10-08T07:09:13;8.50;;;4.10;;
73940;SDS011;62294;48.554;10.202;2023-10-08T07:11:52;10.38;;;3.95;;
73940;SDS011;62294;48.554;10.202;2023-10-08T07:14:22;10.13;;;4.20;;
73940;SDS011;62294;48.554;10.202;2023-10-08T07:16:57;10.55;;;4.38;;
73940;SDS011;62294;48.554;10.202;2023-10-08T07:19:27;9.38;;;3.88;;
73940;SDS011;62294;48.554;10.202;2023-10-08T07:22:07;10.60;;;4.50;;
73940;SDS011;62294;48.554;10.202;2023-10-08T07:24:45;9.60;;;4.10;;
73940;SDS011;62294;48.554;10.202;2023-10-08T07:27:12;10.38;;;4.25;;
73940;SDS011;62294;48.554;10.202;2023-10-08T07:29:40;11.60;;;4.53;;
73940;SDS011;62294;48.554;10.202;2023-10-08T07:32:06;10.10;;;3.40;;
73940;SDS011;62294;48.554;10.202;2023-10-08T07:34:38;8.77;;;3.30;;
73940;SDS011;62294;48.554;10.202;2023-10-08T07:37:05;7.07;;;3.40;;
73940;SDS011;62294;48.554;10.202;2023-10-08T07:39:32;7.15;;;4.05;;
73940;SDS011;62294;48.554;10.202;2023-10-08T07:42:04;7.60;;;3.50;;
73940;SDS011;62294;48.554;10.202;2023-10-08T07:44:32;8.93;;;3.60;;
73940;SDS011;62294;48.554;10.202;2023-10-08T07:47:02;11.98;;;3.53;;
73940;SDS011;62294;48.554;10.202;2023-10-08T07:49:37;12.40;;;3.53;;
73940;SDS011;62294;48.554;10.202;2023-10-08T07:52:04;9.85;;;4.18;;
73940;SDS011;62294;48.554;10.202;2023-10-08T07:54:31;10.02;;;3.63;;
73940;SDS011;62294;48.554;10.202;2023-10-08T07:57:01;11.02;;;4.03;;
73940;SDS011;62294;48.554;10.202;2023-10-08T07:59:35;11.05;;;3.90;;
73940;SDS011;62294;48.554;10.202;2023-10-08T08:02:08;6.97;;;3.42;;
73940;SDS011;62294;48.554;10.202;2023-10-08T08:04:39;9.38;;;3.30;;
73940;SDS011;62294;48.554;10.202;2023-10-08T08:07:07;8.68;;;3.70;;
73940;SDS011;62294;48.554;10.202;2023-10-08T08:09:34;8.32;;;3.53;;
73940;SDS011;62294;48.554;10.202;2023-10-08T08:12:05;8.88;;;4.13;;
73940;SDS011;62294;48.554;10.202;2023-10-08T08:14:37;8.45;;;3.90;;
73940;SDS011;62294;48.554;10.202;2023-10-08T08:17:07;7.30;;;3.53;;
73940;SDS011;62294;48.554;10.202;2023-10-08T08:19:41;6.72;;;3.47;;
73940;SDS011;62294;48.554;10.202;2023-10-08T08:22:10;9.07;;;3.70;;
73940;SDS011;62294;48.554;10.202;2023-10-08T08:24:48;10.68;;;4.00;;
73940;SDS011;62294;48.554;10.202;2023-10-08T08:27:23;13.82;;;4.05;;
73940;SDS011;62294;48.554;10.202;2023-10-08T08:29:59;8.55;;;3.75;;
73940;SDS011;62294;48.554;10.202;2023-10-08T08:32:42;7.15;;;3.72;;
73940;SDS011;62294;48.554;10.202;2023-10-08T08:35:11;8.60;;;3.83;;
73940;SDS011;62294;48.554;10.202;2023-10-08T08:37:38;9.90;;;3.80;;
73940;SDS011;62294;48.554;10.202;2023-10-08T08:40:06;8.57;;;4.22;;
73940;SDS011;62294;48.554;10.202;2023-10-08T08:42:48;10.38;;;3.78;;
73940;SDS011;62294;48.554;10.202;2023-10-08T08:45:18;8.05;;;4.07;;
73940;SDS011;62294;48.554;10.202;2023-10-08T08:47:47;10.57;;;3.65;;
73940;SDS011;62294;48.554;10.202;2023-10-08T08:50:14;11.55;;;5.13;;
73940;SDS011;62294;48.554;10.202;2023-10-08T08:52:41;7.70;;;3.60;;
73940;SDS011;62294;48.554;10.202;2023-10-08T08:55:07;8.98;;;3.78;;
73940;SDS011;62294;48.554;10.202;2023-10-08T08:57:44;8.85;;;4.40;;
73940;SDS011;62294;48.554;10.202;2023-10-08T09:00:14;8.00;;;3.88;;
73940;SDS011;62294;48.554;10.202;2023-10-08T09:02:46;9.13;;;4.13;;
73940;SDS011;62294;48.554;10.202;2023-10-08T09:05:15;10.38;;;3.70;;
73940;SDS011;62294;48.554;10.202;2023-10-08T09:07:57;9.30;;;3.67;;
73940;SDS011;62294;48.554;10.202;2023-10-08T09:10:31;8.95;;;3.92;;
73940;SDS011;62294;48.554;10.202;2023-10-08T09:13:04;9.27;;;3.97;;
73940;SDS011;62294;48.554;10.202;2023-10-08T09:15:32;11.07;;;3.35;;
73940;SDS011;62294;48.554;10.202;2023-10-08T09:17:58;9.68;;;3.85;;
73940;SDS011;62294;48.554;10.202;2023-10-08T09:20:29;11.30;;;4.03;;
73940;SDS011;62294;48.554;10.202;2023-10-08T09:23:07;9.57;;;3.65;;
73940;SDS011;62294;48.554;10.202;2023-10-08T09:25:39;7.95;;;3.40;;
73940;SDS011;62294;48.554;10.202;2023-10-08T09:28:07;10.27;;;3.55;;
73940;SDS011;62294;48.554;10.202;2023-10-08T09:30:34;7.45;;;3.47;;
73940;SDS011;62294;48.554;10.202;2023-10-08T09:33:05;14.55;;;3.10;;
73940;SDS011;62294;48.554;10.202;2023-10-08T09:35:32;9.50;;;3.63;;
73940;SDS011;62294;48.554;10.202;2023-10-08T09:38:02;8.52;;;3.78;;
73940;SDS011;62294;48.554;10.202;2023-10-08T09:40:30;8.70;;;2.95;;
73940;SDS011;62294;48.554;10.202;2023-10-08T09:42:58;11.80;;;2.60;;
73940;SDS011;62294;48.554;10.202;2023-10-08T09:45:25;8.50;;;2.92;;
73940;SDS011;62294;48.554;10.202;2023-10-08T09:47:55;7.63;;;2.45;;
73940;SDS011;62294;48.554;10.202;2023-10-08T09:50:29;6.60;;;2.60;;
73940;SDS011;62294;48.554;10.202;2023-10-08T09:53:16;8.88;;;3.83;;
73940;SDS011;62294;48.554;10.202;2023-10-08T09:55:53;13.70;;;3.28;;
73940;SDS011;62294;48.554;10.202;2023-10-08T09:58:22;9.93;;;3.22;;
73940;SDS011;62294;48.554;10.202;2023-10-08T10:00:51;7.03;;;2.67;;
73940;SDS011;62294;48.554;10.202;2023-10-08T10:03:20;10.20;;;2.45;;
73940;SDS011;62294;48.554;10.202;2023-10-08T10:05:48;7.35;;;2.53;;
73940;SDS011;62294;48.554;10.202;2023-10-08T10:08:21;8.23;;;2.65;;
73940;SDS011;62294;48.554;10.202;2023-10-08T10:10:57;8.60;;;2.55;;
73940;SDS011;62294;48.554;10.202;2023-10-08T10:13:29;8.07;;;3.00;;
73940;SDS011;62294;48.554;10.202;2023-10-08T10:16:00;7.55;;;2.58;;
73940;SDS011;62294;48.554;10.202;2023-10-08T10:18:28;7.97;;;2.80;;
73940;SDS011;62294;48.554;10.202;2023-10-08T10:20:59;7.32;;;2.63;;
73940;SDS011;62294;48.554;10.202;2023-10-08T10:31:34;9.27;;;2.50;;
73940;SDS011;62294;48.554;10.202;2023-10-08T10:34:05;5.65;;;2.03;;
73940;SDS011;62294;48.554;10.202;2023-10-08T10:36:34;13.18;;;3.03;;
73940;SDS011;62294;48.554;10.202;2023-10-08T10:39:02;9.38;;;2.65;;
73940;SDS011;62294;48.554;10.202;2023-10-08T10:41:44;7.75;;;2.20;;
73940;SDS011;62294;48.554;10.202;2023-10-08T10:44:12;7.18;;;2.50;;
73940;SDS011;62294;48.554;10.202;2023-10-08T10:46:40;6.63;;;2.15;;
73940;SDS011;62294;48.554;10.202;2023-10-08T10:49:20;7.40;;;2.83;;
73940;SDS011;62294;48.554;10.202;2023-10-08T10:51:58;8.68;;;3.35;;
73940;SDS011;62294;48.554;10.202;2023-10-08T10:54:25;13.40;;;3.22;;
73940;SDS011;62294;48.554;10.202;2023-10-08T10:56:52;12.07;;;2.28;;
73940;SDS011;62294;48.554;10.202;2023-10-08T10:59:32;7.45;;;2.42;;
73940;SDS011;62294;48.554;10.202;2023-10-08T11:02:09;6.00;;;1.98;;
73940;SDS011;62294;48.554;10.202;2023-10-08T11:04:47;11.13;;;2.95;;
73940;SDS011;62294;48.554;10.202;2023-10-08T11:07:17;8.18;;;2.70;;
73940;SDS011;62294;48.554;10.202;2023-10-08T11:09:48;7.43;;;2.17;;
73940;SDS011;62294;48.554;10.202;2023-10-08T11:12:18;10.35;;;2.83;;
73940;SDS011;62294;48.554;10.202;2023-10-08T11:14:49;9.18;;;2.40;;
73940;SDS011;62294;48.554;10.202;2023-10-08T11:17:22;9.20;;;2.63;;
73940;SDS011;62294;48.554;10.202;2023-10-08T11:19:51;9.05;;;2.10;;
73940;SDS011;62294;48.554;10.202;2023-10-08T11:22:18;7.43;;;2.28;;
73940;SDS011;62294;48.554;10.202;2023-10-08T11:24:45;7.43;;;2.63;;
73940;SDS011;62294;48.554;10.202;2023-10-08T11:27:20;10.07;;;2.72;;
73940;SDS011;62294;48.554;10.202;2023-10-08T11:29:56;9.95;;;2.47;;
73940;SDS011;62294;48.554;10.202;2023-10-08T11:32:24;8.50;;;2.97;;
73940;SDS011;62294;48.554;10.202;2023-10-08T11:34:55;7.90;;;2.40;;
73940;SDS011;62294;48.554;10.202;2023-10-08T11:37:29;7.63;;;2.05;;
73940;SDS011;62294;48.554;10.202;2023-10-08T11:40:00;9.55;;;2.45;;
73940;SDS011;62294;48.554;10.202;2023-10-08T11:42:44;8.48;;;2.20;;
73940;SDS011;62294;48.554;10.202;2023-10-08T11:45:11;7.38;;;2.28;;
73940;SDS011;62294;48.554;10.202;2023-10-08T11:48:06;6.43;;;2.05;;
73940;SDS011;62294;48.554;10.202;2023-10-08T11:50:39;6.88;;;2.47;;
73940;SDS011;62294;48.554;10.202;2023-10-08T11:53:07;8.95;;;2.53;;
73940;SDS011;62294;48.554;10.202;2023-10-08T11:55:34;8.48;;;3.08;;
73940;SDS011;62294;48.554;10.202;2023-10-08T11:58:05;6.30;;;2.60;;
73940;SDS011;62294;48.554;10.202;2023-10-08T12:00:44;7.57;;;2.90;;
73940;SDS011;62294;48.554;10.202;2023-10-08T12:03:13;12.77;;;2.67;;
73940;SDS011;62294;48.554;10.202;2023-10-08T12:05:48;9.73;;;2.47;;
73940;SDS011;62294;48.554;10.202;2023-10-08T12:08:16;9.63;;;3.03;;
73940;SDS011;62294;48.554;10.202;2023-10-08T12:10:44;7.22;;;2.95;;
73940;SDS011;62294;48.554;10.202;2023-10-08T12:13:13;5.63;;;2.22;;
73940;SDS011;62294;48.554;10.202;2023-10-08T12:15:40;9.77;;;2.83;;
73940;SDS011;62294;48.554;10.202;2023-10-08T12:18:10;8.18;;;2.30;;
73940;SDS011;62294;48.554;10.202;2023-10-08T12:20:55;7.13;;;2.95;;
73940;SDS011;62294;48.554;10.202;2023-10-08T12:23:22;15.68;;;3.30;;
73940;SDS011;62294;48.554;10.202;2023-10-08T12:25:52;8.40;;;2.15;;
73940;SDS011;62294;48.554;10.202;2023-10-08T12:28:22;8.52;;;2.85;;
73940;SDS011;62294;48.554;10.202;2023-10-08T12:30:50;8.13;;;2.30;;
73940;SDS011;62294;48.554;10.202;2023-10-08T12:33:20;11.77;;;3.42;;
73940;SDS011;62294;48.554;10.202;2023-10-08T12:35:48;6.80;;;2.72;;
73940;SDS011;62294;48.554;10.202;2023-10-08T12:38:15;5.50;;;2.63;;
73940;SDS011;62294;48.554;10.202;2023-10-08T12:40:41;9.23;;;2.60;;
73940;SDS011;62294;48.554;10.202;2023-10-08T12:43:14;12.68;;;2.53;;
73940;SDS011;62294;48.554;10.202;2023-10-08T12:45:49;9.73;;;2.70;;
73940;SDS011;62294;48.554;10.202;2023-10-08T12:48:19;7.35;;;2.33;;
73940;SDS011;62294;48.554;10.202;2023-10-08T12:50:54;8.90;;;3.08;;
73940;SDS011;62294;48.554;10.202;2023-10-08T12:53:28;7.50;;;2.45;;
73940;SDS011;62294;48.554;10.202;2023-10-08T12:56:05;10.75;;;2.67;;
73940;SDS011;62294;48.554;10.202;2023-10-08T12:58:34;7.90;;;2.33;;
73940;SDS011;62294;48.554;10.202;2023-10-08T13:01:08;9.18;;;3.00;;
73940;SDS011;62294;48.554;10.202;2023-10-08T13:03:36;9.07;;;2.92;;
73940;SDS011;62294;48.554;10.202;2023-10-08T13:06:14;10.65;;;2.92;;
73940;SDS011;62294;48.554;10.202;2023-10-08T13:08:49;9.00;;;2.75;;
73940;SDS011;62294;48.554;10.202;2023-10-08T13:11:19;11.27;;;3.00;;
73940;SDS011;62294;48.554;10.202;2023-10-08T13:13:50;9.20;;;3.00;;
73940;SDS011;62294;48.554;10.202;2023-10-08T13:16:19;9.75;;;3.00;;
73940;SDS011;62294;48.554;10.202;2023-10-08T13:18:47;10.30;;;2.70;;
73940;SDS011;62294;48.554;10.202;2023-10-08T13:21:15;15.48;;;2.40;;
73940;SDS011;62294;48.554;10.202;2023-10-08T13:23:42;8.95;;;2.60;;
73940;SDS011;62294;48.554;10.202;2023-10-08T13:26:08;8.38;;;2.40;;
73940;SDS011;62294;48.554;10.202;2023-10-08T13:28:35;10.98;;;3.15;;
73940;SDS011;62294;48.554;10.202;2023-10-08T13:31:02;8.70;;;2.40;;
73940;SDS011;62294;48.554;10.202;2023-10-08T13:33:39;7.10;;;2.22;;
73940;SDS011;62294;48.554;10.202;2023-10-08T13:36:09;9.85;;;2.40;;
73940;SDS011;62294;48.554;10.202;2023-10-08T13:38:44;9.48;;;2.38;;
73940;SDS011;62294;48.554;10.202;2023-10-08T13:41:13;11.90;;;2.42;;
73940;SDS011;62294;48.554;10.202;2023-10-08T13:43:45;8.88;;;2.40;;
73940;SDS011;62294;48.554;10.202;2023-10-08T13:46:17;9.52;;;1.90;;
73940;SDS011;62294;48.554;10.202;2023-10-08T13:48:45;11.98;;;2.45;;
73940;SDS011;62294;48.554;10.202;2023-10-08T13:51:16;9.98;;;2.42;;
73940;SDS011;62294;48.554;10.202;2023-10-08T13:53:53;8.57;;;3.13;;
73940;SDS011;62294;48.554;10.202;2023-10-08T13:56:26;8.02;;;2.63;;
73940;SDS011;62294;48.554;10.202;2023-10-08T13:58:56;9.52;;;2.65;;
73940;SDS011;62294;48.554;10.202;2023-10-08T14:01:40;8.43;;;3.05;;
73940;SDS011;62294;48.554;10.202;2023-10-08T14:04:29;12.13;;;3.50;;
73940;SDS011;62294;48.554;10.202;2023-10-08T14:07:07;6.75;;;2.33;;
73940;SDS011;62294;48.554;10.202;2023-10-08T14:09:33;7.55;;;2.60;;
73940;SDS011;62294;48.554;10.202;2023-10-08T14:12:08;10.73;;;2.75;;
73940;SDS011;62294;48.554;10.202;2023-10-08T14:14:36;8.52;;;2.83;;
73940;SDS011;62294;48.554;10.202;2023-10-08T14:17:07;9.55;;;2.50;;
73940;SDS011;62294;48.554;10.202;2023-10-08T14:19:37;15.00;;;2.60;;
73940;SDS011;62294;48.554;10.202;2023-10-08T14:22:12;7.30;;;2.50;;
73940;SDS011;62294;48.554;10.202;2023-10-08T14:24:43;11.15;;;2.30;;
73940;SDS011;62294;48.554;10.202;2023-10-08T14:27:12;9.73;;;2.25;;
73940;SDS011;62294;48.554;10.202;2023-10-08T14:29:42;10.35;;;2.90;;
73940;SDS011;62294;48.554;10.202;2023-10-08T14:32:17;9.85;;;2.53;;
73940;SDS011;62294;48.554;10.202;2023-10-08T14:34:43;12.85;;;3.05;;
73940;SDS011;62294;48.554;10.202;2023-10-08T14:37:13;7.65;;;2.22;;
73940;SDS011;62294;48.554;10.202;2023-10-08T14:39:59;12.38;;;2.50;;
73940;SDS011;62294;48.554;10.202;2023-10-08T14:42:44;17.88;;;3.72;;
73940;SDS011;62294;48.554;10.202;2023-10-08T14:45:25;9.55;;;2.47;;
73940;SDS011;62294;48.554;10.202;2023-10-08T14:47:56;6.68;;;2.20;;
73940;SDS011;62294;48.554;10.202;2023-10-08T14:50:25;8.85;;;2.55;;
73940;SDS011;62294;48.554;10.202;2023-10-08T14:52:59;10.68;;;2.42;;
73940;SDS011;62294;48.554;10.202;2023-10-08T14:55:32;12.10;;;2.95;;
73940;SDS011;62294;48.554;10.202;2023-10-08T14:58:02;8.98;;;3.30;;
73940;SDS011;62294;48.554;10.202;2023-10-08T15:00:35;10.70;;;2.25;;
73940;SDS011;62294;48.554;10.202;2023-10-08T15:03:06;13.43;;;2.40;;
73940;SDS011;62294;48.554;10.202;2023-10-08T15:05:33;10.15;;;2.13;;
73940;SDS011;62294;48.554;10.202;2023-10-08T15:08:04;11.10;;;2.63;;
73940;SDS011;62294;48.554;10.202;2023-10-08T15:10:36;8.20;;;2.20;;
73940;SDS011;62294;48.554;10.202;2023-10-08T15:13:03;12.98;;;3.28;;
73940;SDS011;62294;48.554;10.202;2023-10-08T15:15:29;8.27;;;2.60;;